sensor_id;sensor_type;location;lat;lon;timestamp;P1;durP1;ratioP1;P2;durP2;ratioP2
72586;SDS011;60621;49.576;11.024;2023-02-10T00:00:23;29.88;;;12.45;;
72586;SDS011;60621;49.576;11.024;2023-02-10T00:01:27;29.98;;;12.95;;
72586;SDS011;60621;49.576;11.024;2023-02-10T00:02:29;32.50;;;13.73;;
72586;SDS011;60621;49.576;11.024;2023-02-10T00:03:31;26.88;;;12.02;;
72586;SDS011;60621;49.576;11.024;2023-02-10T00:04:33;33.75;;;13.35;;
72586;SDS011;60621;49.576;11.024;2023-02-10T00:05:35;30.05;;;13.82;;
72586;SDS011;60621;49.576;11.024;2023-02-10T00:06:36;32.55;;;12.93;;
72586;SDS011;60621;49.576;11.024;2023-02-10T00:07:38;31.27;;;13.30;;
72586;SDS011;60621;49.576;11.024;2023-02-10T00:08:39;32.50;;;13.98;;
72586;SDS011;60621;49.576;11.024;2023-02-10T00:09:41;29.40;;;12.85;;
72586;SDS011;60621;49.576;11.024;2023-02-10T00:10:43;28.83;;;12.63;;
72586;SDS011;60621;49.576;11.024;2023-02-10T00:11:44;30.80;;;13.40;;
72586;SDS011;60621;49.576;11.024;2023-02-10T00:12:58;33.67;;;13.23;;
72586;SDS011;60621;49.576;11.024;2023-02-10T00:13:59;31.15;;;12.85;;
72586;SDS011;60621;49.576;11.024;2023-02-10T00:15:00;30.58;;;13.25;;
72586;SDS011;60621;49.576;11.024;2023-02-10T00:16:03;29.00;;;12.20;;
72586;SDS011;60621;49.576;11.024;2023-02-10T00:17:06;30.70;;;13.65;;
72586;SDS011;60621;49.576;11.024;2023-02-10T00:18:08;36.13;;;15.02;;
72586;SDS011;60621;49.576;11.024;2023-02-10T00:19:09;32.97;;;13.85;;
72586;SDS011;60621;49.576;11.024;2023-02-10T00:20:11;33.28;;;13.90;;
72586;SDS011;60621;49.576;11.024;2023-02-10T00:21:14;31.50;;;14.13;;
72586;SDS011;60621;49.576;11.024;2023-02-10T00:22:17;32.75;;;14.15;;
72586;SDS011;60621;49.576;11.024;2023-02-10T00:23:19;32.42;;;12.90;;
72586;SDS011;60621;49.576;11.024;2023-02-10T00:24:20;34.53;;;13.40;;
72586;SDS011;60621;49.576;11.024;2023-02-10T00:25:22;31.88;;;13.23;;
72586;SDS011;60621;49.576;11.024;2023-02-10T00:26:24;31.73;;;13.40;;
72586;SDS011;60621;49.576;11.024;2023-02-10T00:27:26;32.78;;;13.63;;
72586;SDS011;60621;49.576;11.024;2023-02-10T00:28:28;31.30;;;13.80;;
72586;SDS011;60621;49.576;11.024;2023-02-10T00:29:29;31.48;;;13.63;;
72586;SDS011;60621;49.576;11.024;2023-02-10T00:30:32;30.80;;;13.98;;
72586;SDS011;60621;49.576;11.024;2023-02-10T00:31:34;32.45;;;13.90;;
72586;SDS011;60621;49.576;11.024;2023-02-10T00:32:36;38.78;;;14.10;;
72586;SDS011;60621;49.576;11.024;2023-02-10T00:33:41;33.67;;;13.85;;
72586;SDS011;60621;49.576;11.024;2023-02-10T00:34:45;30.80;;;13.70;;
72586;SDS011;60621;49.576;11.024;2023-02-10T00:35:47;31.98;;;13.45;;
72586;SDS011;60621;49.576;11.024;2023-02-10T00:36:49;32.53;;;13.23;;
72586;SDS011;60621;49.576;11.024;2023-02-10T00:37:51;32.38;;;13.52;;
72586;SDS011;60621;49.576;11.024;2023-02-10T00:38:53;33.47;;;13.52;;
72586;SDS011;60621;49.576;11.024;2023-02-10T00:39:55;33.40;;;13.52;;
72586;SDS011;60621;49.576;11.024;2023-02-10T00:41:05;33.22;;;14.90;;
72586;SDS011;60621;49.576;11.024;2023-02-10T00:42:08;31.55;;;13.57;;
72586;SDS011;60621;49.576;11.024;2023-02-10T00:43:10;31.20;;;13.10;;
72586;SDS011;60621;49.576;11.024;2023-02-10T00:44:11;30.23;;;14.35;;
72586;SDS011;60621;49.576;11.024;2023-02-10T00:45:13;33.80;;;13.82;;
72586;SDS011;60621;49.576;11.024;2023-02-10T00:46:16;29.90;;;12.90;;
72586;SDS011;60621;49.576;11.024;2023-02-10T00:47:19;33.70;;;15.40;;
72586;SDS011;60621;49.576;11.024;2023-02-10T00:48:20;30.67;;;13.85;;
72586;SDS011;60621;49.576;11.024;2023-02-10T00:49:22;34.28;;;13.45;;
72586;SDS011;60621;49.576;11.024;2023-02-10T00:50:24;33.20;;;14.27;;
72586;SDS011;60621;49.576;11.024;2023-02-10T00:51:26;32.13;;;13.52;;
72586;SDS011;60621;49.576;11.024;2023-02-10T00:52:27;31.55;;;14.05;;
72586;SDS011;60621;49.576;11.024;2023-02-10T00:53:29;32.85;;;13.73;;
72586;SDS011;60621;49.576;11.024;2023-02-10T00:54:31;31.00;;;13.25;;
72586;SDS011;60621;49.576;11.024;2023-02-10T00:55:32;35.08;;;14.30;;
72586;SDS011;60621;49.576;11.024;2023-02-10T00:56:34;30.50;;;13.88;;
72586;SDS011;60621;49.576;11.024;2023-02-10T00:57:35;34.78;;;14.95;;
72586;SDS011;60621;49.576;11.024;2023-02-10T00:58:37;33.30;;;14.73;;
72586;SDS011;60621;49.576;11.024;2023-02-10T00:59:38;32.53;;;14.18;;
72586;SDS011;60621;49.576;11.024;2023-02-10T01:00:40;32.75;;;14.43;;
72586;SDS011;60621;49.576;11.024;2023-02-10T01:01:41;34.60;;;14.60;;
72586;SDS011;60621;49.576;11.024;2023-02-10T01:02:43;33.22;;;15.27;;
72586;SDS011;60621;49.576;11.024;2023-02-10T01:03:45;34.05;;;14.45;;
72586;SDS011;60621;49.576;11.024;2023-02-10T01:04:47;32.25;;;14.48;;
72586;SDS011;60621;49.576;11.024;2023-02-10T01:05:48;34.28;;;14.57;;
72586;SDS011;60621;49.576;11.024;2023-02-10T01:06:50;35.72;;;14.40;;
72586;SDS011;60621;49.576;11.024;2023-02-10T01:07:52;36.40;;;16.02;;
72586;SDS011;60621;49.576;11.024;2023-02-10T01:08:54;34.63;;;14.63;;
72586;SDS011;60621;49.576;11.024;2023-02-10T01:09:55;33.70;;;14.52;;
72586;SDS011;60621;49.576;11.024;2023-02-10T01:10:58;34.28;;;14.85;;
72586;SDS011;60621;49.576;11.024;2023-02-10T01:12:04;31.02;;;13.95;;
72586;SDS011;60621;49.576;11.024;2023-02-10T01:13:08;33.70;;;14.88;;
72586;SDS011;60621;49.576;11.024;2023-02-10T01:14:10;35.13;;;14.35;;
72586;SDS011;60621;49.576;11.024;2023-02-10T01:15:12;34.70;;;14.13;;
72586;SDS011;60621;49.576;11.024;2023-02-10T01:16:14;33.83;;;15.00;;
72586;SDS011;60621;49.576;11.024;2023-02-10T01:17:18;35.28;;;14.80;;
72586;SDS011;60621;49.576;11.024;2023-02-10T01:18:19;35.97;;;14.73;;
72586;SDS011;60621;49.576;11.024;2023-02-10T01:19:21;35.25;;;14.45;;
72586;SDS011;60621;49.576;11.024;2023-02-10T01:20:23;36.55;;;14.88;;
72586;SDS011;60621;49.576;11.024;2023-02-10T01:21:25;33.95;;;14.55;;
72586;SDS011;60621;49.576;11.024;2023-02-10T01:22:27;32.97;;;14.07;;
72586;SDS011;60621;49.576;11.024;2023-02-10T01:23:29;37.30;;;14.30;;
72586;SDS011;60621;49.576;11.024;2023-02-10T01:24:30;34.67;;;14.10;;
72586;SDS011;60621;49.576;11.024;2023-02-10T01:25:33;33.08;;;14.20;;
72586;SDS011;60621;49.576;11.024;2023-02-10T01:26:35;33.92;;;13.98;;
72586;SDS011;60621;49.576;11.024;2023-02-10T01:27:37;36.65;;;15.88;;
72586;SDS011;60621;49.576;11.024;2023-02-10T01:28:39;34.80;;;14.43;;
72586;SDS011;60621;49.576;11.024;2023-02-10T01:29:41;31.83;;;14.45;;
72586;SDS011;60621;49.576;11.024;2023-02-10T01:30:43;33.60;;;14.00;;
72586;SDS011;60621;49.576;11.024;2023-02-10T01:31:44;33.72;;;14.18;;
72586;SDS011;60621;49.576;11.024;2023-02-10T01:32:46;34.47;;;14.20;;
72586;SDS011;60621;49.576;11.024;2023-02-10T01:33:52;34.72;;;14.98;;
72586;SDS011;60621;49.576;11.024;2023-02-10T01:34:54;32.28;;;14.00;;
72586;SDS011;60621;49.576;11.024;2023-02-10T01:35:56;36.17;;;14.82;;
72586;SDS011;60621;49.576;11.024;2023-02-10T01:36:57;33.75;;;14.70;;
72586;SDS011;60621;49.576;11.024;2023-02-10T01:37:59;34.38;;;15.35;;
72586;SDS011;60621;49.576;11.024;2023-02-10T01:39:00;34.13;;;13.88;;
72586;SDS011;60621;49.576;11.024;2023-02-10T01:40:02;33.85;;;14.40;;
72586;SDS011;60621;49.576;11.024;2023-02-10T01:41:04;36.83;;;15.77;;
72586;SDS011;60621;49.576;11.024;2023-02-10T01:42:08;34.50;;;16.27;;
72586;SDS011;60621;49.576;11.024;2023-02-10T01:43:14;36.28;;;15.57;;
72586;SDS011;60621;49.576;11.024;2023-02-10T01:46:35;36.65;;;14.90;;
72586;SDS011;60621;49.576;11.024;2023-02-10T01:47:37;33.97;;;14.02;;
72586;SDS011;60621;49.576;11.024;2023-02-10T01:48:38;36.17;;;14.52;;
72586;SDS011;60621;49.576;11.024;2023-02-10T01:49:41;34.58;;;14.52;;
72586;SDS011;60621;49.576;11.024;2023-02-10T01:50:49;36.83;;;15.57;;
72586;SDS011;60621;49.576;11.024;2023-02-10T01:51:55;34.88;;;14.63;;
72586;SDS011;60621;49.576;11.024;2023-02-10T01:52:57;35.38;;;15.68;;
72586;SDS011;60621;49.576;11.024;2023-02-10T01:54:00;36.60;;;15.15;;
72586;SDS011;60621;49.576;11.024;2023-02-10T01:55:04;38.78;;;15.70;;
72586;SDS011;60621;49.576;11.024;2023-02-10T01:56:08;36.35;;;15.57;;
72586;SDS011;60621;49.576;11.024;2023-02-10T01:57:11;36.05;;;15.10;;
72586;SDS011;60621;49.576;11.024;2023-02-10T01:58:14;36.35;;;15.85;;
72586;SDS011;60621;49.576;11.024;2023-02-10T01:59:18;38.63;;;15.80;;
72586;SDS011;60621;49.576;11.024;2023-02-10T02:00:22;39.03;;;15.57;;
72586;SDS011;60621;49.576;11.024;2023-02-10T02:01:25;35.58;;;15.32;;
72586;SDS011;60621;49.576;11.024;2023-02-10T02:02:27;34.25;;;14.98;;
72586;SDS011;60621;49.576;11.024;2023-02-10T02:03:29;38.67;;;16.60;;
72586;SDS011;60621;49.576;11.024;2023-02-10T02:04:31;36.10;;;15.10;;
72586;SDS011;60621;49.576;11.024;2023-02-10T02:05:34;34.80;;;15.40;;
72586;SDS011;60621;49.576;11.024;2023-02-10T02:06:37;35.75;;;15.35;;
72586;SDS011;60621;49.576;11.024;2023-02-10T02:07:40;34.45;;;14.82;;
72586;SDS011;60621;49.576;11.024;2023-02-10T02:08:41;37.97;;;16.15;;
72586;SDS011;60621;49.576;11.024;2023-02-10T02:09:43;36.28;;;15.13;;
72586;SDS011;60621;49.576;11.024;2023-02-10T02:10:51;33.78;;;15.10;;
72586;SDS011;60621;49.576;11.024;2023-02-10T02:12:01;34.67;;;15.45;;
72586;SDS011;60621;49.576;11.024;2023-02-10T02:14:45;32.30;;;14.27;;
72586;SDS011;60621;49.576;11.024;2023-02-10T02:15:51;34.45;;;14.73;;
72586;SDS011;60621;49.576;11.024;2023-02-10T02:19:59;32.78;;;14.13;;
72586;SDS011;60621;49.576;11.024;2023-02-10T02:24:21;33.63;;;14.50;;
72586;SDS011;60621;49.576;11.024;2023-02-10T02:28:39;35.28;;;14.80;;
72586;SDS011;60621;49.576;11.024;2023-02-10T02:35:32;34.47;;;14.07;;
72586;SDS011;60621;49.576;11.024;2023-02-10T02:36:41;35.15;;;14.57;;
72586;SDS011;60621;49.576;11.024;2023-02-10T02:37:48;35.22;;;15.02;;
72586;SDS011;60621;49.576;11.024;2023-02-10T02:38:50;35.60;;;14.63;;
72586;SDS011;60621;49.576;11.024;2023-02-10T02:39:52;36.72;;;14.77;;
72586;SDS011;60621;49.576;11.024;2023-02-10T02:40:54;38.35;;;15.00;;
72586;SDS011;60621;49.576;11.024;2023-02-10T02:42:16;36.15;;;14.85;;
72586;SDS011;60621;49.576;11.024;2023-02-10T02:43:17;35.50;;;15.20;;
72586;SDS011;60621;49.576;11.024;2023-02-10T02:44:19;36.28;;;15.07;;
72586;SDS011;60621;49.576;11.024;2023-02-10T02:45:32;40.40;;;17.48;;
72586;SDS011;60621;49.576;11.024;2023-02-10T02:47:01;34.72;;;14.57;;
72586;SDS011;60621;49.576;11.024;2023-02-10T02:48:15;36.15;;;14.82;;
72586;SDS011;60621;49.576;11.024;2023-02-10T02:49:42;36.78;;;15.35;;
72586;SDS011;60621;49.576;11.024;2023-02-10T02:53:22;36.28;;;14.27;;
72586;SDS011;60621;49.576;11.024;2023-02-10T02:57:10;38.78;;;14.95;;
72586;SDS011;60621;49.576;11.024;2023-02-10T02:58:56;33.55;;;13.90;;
72586;SDS011;60621;49.576;11.024;2023-02-10T03:00:05;33.60;;;14.88;;
72586;SDS011;60621;49.576;11.024;2023-02-10T03:01:14;34.42;;;14.98;;
72586;SDS011;60621;49.576;11.024;2023-02-10T03:02:22;36.53;;;14.93;;
72586;SDS011;60621;49.576;11.024;2023-02-10T03:03:25;34.78;;;14.18;;
72586;SDS011;60621;49.576;11.024;2023-02-10T03:04:28;37.85;;;15.10;;
72586;SDS011;60621;49.576;11.024;2023-02-10T03:05:32;36.33;;;15.38;;
72586;SDS011;60621;49.576;11.024;2023-02-10T03:06:34;40.15;;;15.85;;
72586;SDS011;60621;49.576;11.024;2023-02-10T03:07:35;38.45;;;16.52;;
72586;SDS011;60621;49.576;11.024;2023-02-10T03:08:38;35.08;;;14.73;;
72586;SDS011;60621;49.576;11.024;2023-02-10T03:09:42;36.47;;;15.18;;
72586;SDS011;60621;49.576;11.024;2023-02-10T03:10:44;36.33;;;16.23;;
72586;SDS011;60621;49.576;11.024;2023-02-10T03:11:46;36.15;;;15.23;;
72586;SDS011;60621;49.576;11.024;2023-02-10T03:12:48;38.92;;;16.73;;
72586;SDS011;60621;49.576;11.024;2023-02-10T03:13:51;42.40;;;15.93;;
72586;SDS011;60621;49.576;11.024;2023-02-10T03:14:53;36.78;;;16.00;;
72586;SDS011;60621;49.576;11.024;2023-02-10T03:15:54;34.45;;;14.55;;
72586;SDS011;60621;49.576;11.024;2023-02-10T03:16:56;37.28;;;15.32;;
72586;SDS011;60621;49.576;11.024;2023-02-10T03:17:58;36.30;;;16.05;;
72586;SDS011;60621;49.576;11.024;2023-02-10T03:18:59;34.10;;;14.52;;
72586;SDS011;60621;49.576;11.024;2023-02-10T03:20:01;37.30;;;15.13;;
72586;SDS011;60621;49.576;11.024;2023-02-10T03:21:03;35.65;;;15.65;;
72586;SDS011;60621;49.576;11.024;2023-02-10T03:22:05;33.10;;;15.32;;
72586;SDS011;60621;49.576;11.024;2023-02-10T03:23:07;34.15;;;14.90;;
72586;SDS011;60621;49.576;11.024;2023-02-10T03:24:09;34.22;;;15.32;;
72586;SDS011;60621;49.576;11.024;2023-02-10T03:25:10;37.33;;;15.80;;
72586;SDS011;60621;49.576;11.024;2023-02-10T03:26:12;36.03;;;14.88;;
72586;SDS011;60621;49.576;11.024;2023-02-10T03:27:14;35.85;;;14.60;;
72586;SDS011;60621;49.576;11.024;2023-02-10T03:28:16;37.22;;;15.15;;
72586;SDS011;60621;49.576;11.024;2023-02-10T03:29:17;31.90;;;13.65;;
72586;SDS011;60621;49.576;11.024;2023-02-10T03:30:19;38.42;;;15.02;;
72586;SDS011;60621;49.576;11.024;2023-02-10T03:31:21;33.45;;;14.07;;
72586;SDS011;60621;49.576;11.024;2023-02-10T03:32:23;33.83;;;14.48;;
72586;SDS011;60621;49.576;11.024;2023-02-10T03:33:25;35.03;;;15.38;;
72586;SDS011;60621;49.576;11.024;2023-02-10T03:34:27;38.28;;;16.05;;
72586;SDS011;60621;49.576;11.024;2023-02-10T03:35:29;36.75;;;15.20;;
72586;SDS011;60621;49.576;11.024;2023-02-10T03:36:31;35.55;;;15.57;;
72586;SDS011;60621;49.576;11.024;2023-02-10T03:38:36;33.92;;;14.70;;
72586;SDS011;60621;49.576;11.024;2023-02-10T03:39:37;37.28;;;14.70;;
72586;SDS011;60621;49.576;11.024;2023-02-10T03:40:39;37.22;;;15.70;;
72586;SDS011;60621;49.576;11.024;2023-02-10T03:41:41;35.03;;;15.38;;
72586;SDS011;60621;49.576;11.024;2023-02-10T03:42:42;38.78;;;15.48;;
72586;SDS011;60621;49.576;11.024;2023-02-10T03:43:44;37.67;;;16.30;;
72586;SDS011;60621;49.576;11.024;2023-02-10T03:44:46;35.78;;;15.38;;
72586;SDS011;60621;49.576;11.024;2023-02-10T03:45:48;37.17;;;15.30;;
72586;SDS011;60621;49.576;11.024;2023-02-10T03:46:50;38.35;;;16.08;;
72586;SDS011;60621;49.576;11.024;2023-02-10T03:47:51;39.67;;;16.38;;
72586;SDS011;60621;49.576;11.024;2023-02-10T03:48:53;37.67;;;15.95;;
72586;SDS011;60621;49.576;11.024;2023-02-10T03:49:55;38.55;;;15.25;;
72586;SDS011;60621;49.576;11.024;2023-02-10T03:50:57;37.42;;;15.73;;
72586;SDS011;60621;49.576;11.024;2023-02-10T03:53:01;40.60;;;15.20;;
72586;SDS011;60621;49.576;11.024;2023-02-10T03:54:03;39.53;;;15.60;;
72586;SDS011;60621;49.576;11.024;2023-02-10T03:55:05;40.17;;;15.73;;
72586;SDS011;60621;49.576;11.024;2023-02-10T03:56:07;39.10;;;16.77;;
72586;SDS011;60621;49.576;11.024;2023-02-10T03:57:10;37.05;;;15.52;;
72586;SDS011;60621;49.576;11.024;2023-02-10T03:58:12;37.05;;;16.58;;
72586;SDS011;60621;49.576;11.024;2023-02-10T03:59:13;40.80;;;16.92;;
72586;SDS011;60621;49.576;11.024;2023-02-10T04:00:15;37.65;;;16.08;;
72586;SDS011;60621;49.576;11.024;2023-02-10T04:01:17;37.60;;;15.88;;
72586;SDS011;60621;49.576;11.024;2023-02-10T04:02:19;42.22;;;16.63;;
72586;SDS011;60621;49.576;11.024;2023-02-10T04:03:20;38.13;;;15.73;;
72586;SDS011;60621;49.576;11.024;2023-02-10T04:04:22;41.08;;;17.00;;
72586;SDS011;60621;49.576;11.024;2023-02-10T04:05:23;40.53;;;16.20;;
72586;SDS011;60621;49.576;11.024;2023-02-10T04:06:25;40.33;;;16.23;;
72586;SDS011;60621;49.576;11.024;2023-02-10T04:07:27;38.85;;;16.00;;
72586;SDS011;60621;49.576;11.024;2023-02-10T04:08:28;41.47;;;17.45;;
72586;SDS011;60621;49.576;11.024;2023-02-10T04:09:30;40.85;;;16.08;;
72586;SDS011;60621;49.576;11.024;2023-02-10T04:10:31;38.78;;;16.05;;
72586;SDS011;60621;49.576;11.024;2023-02-10T04:11:33;39.60;;;15.38;;
72586;SDS011;60621;49.576;11.024;2023-02-10T04:12:35;39.50;;;16.77;;
72586;SDS011;60621;49.576;11.024;2023-02-10T04:13:37;40.30;;;16.25;;
72586;SDS011;60621;49.576;11.024;2023-02-10T04:14:38;36.78;;;15.38;;
72586;SDS011;60621;49.576;11.024;2023-02-10T04:15:40;37.45;;;15.77;;
72586;SDS011;60621;49.576;11.024;2023-02-10T04:16:41;36.22;;;15.10;;
72586;SDS011;60621;49.576;11.024;2023-02-10T04:17:43;41.58;;;16.52;;
72586;SDS011;60621;49.576;11.024;2023-02-10T04:18:44;38.00;;;15.40;;
72586;SDS011;60621;49.576;11.024;2023-02-10T04:19:46;46.00;;;17.67;;
72586;SDS011;60621;49.576;11.024;2023-02-10T04:20:49;44.47;;;17.33;;
72586;SDS011;60621;49.576;11.024;2023-02-10T04:21:51;45.30;;;16.52;;
72586;SDS011;60621;49.576;11.024;2023-02-10T04:22:53;40.67;;;16.77;;
72586;SDS011;60621;49.576;11.024;2023-02-10T04:23:54;41.85;;;16.60;;
72586;SDS011;60621;49.576;11.024;2023-02-10T04:24:57;42.13;;;16.83;;
72586;SDS011;60621;49.576;11.024;2023-02-10T04:25:59;40.55;;;16.55;;
72586;SDS011;60621;49.576;11.024;2023-02-10T04:27:00;40.92;;;16.80;;
72586;SDS011;60621;49.576;11.024;2023-02-10T04:28:02;42.33;;;16.83;;
72586;SDS011;60621;49.576;11.024;2023-02-10T04:29:03;41.08;;;16.52;;
72586;SDS011;60621;49.576;11.024;2023-02-10T04:30:05;45.63;;;16.70;;
72586;SDS011;60621;49.576;11.024;2023-02-10T04:31:08;42.13;;;16.42;;
72586;SDS011;60621;49.576;11.024;2023-02-10T04:32:11;39.58;;;16.30;;
72586;SDS011;60621;49.576;11.024;2023-02-10T04:33:12;39.97;;;15.80;;
72586;SDS011;60621;49.576;11.024;2023-02-10T04:34:14;37.92;;;16.27;;
72586;SDS011;60621;49.576;11.024;2023-02-10T04:35:15;37.67;;;15.82;;
72586;SDS011;60621;49.576;11.024;2023-02-10T04:36:17;39.63;;;16.08;;
72586;SDS011;60621;49.576;11.024;2023-02-10T04:37:18;41.72;;;16.50;;
72586;SDS011;60621;49.576;11.024;2023-02-10T04:38:20;40.30;;;16.35;;
72586;SDS011;60621;49.576;11.024;2023-02-10T04:39:22;42.50;;;16.83;;
72586;SDS011;60621;49.576;11.024;2023-02-10T04:40:23;44.42;;;16.58;;
72586;SDS011;60621;49.576;11.024;2023-02-10T04:41:25;39.38;;;16.52;;
72586;SDS011;60621;49.576;11.024;2023-02-10T04:42:27;42.60;;;17.05;;
72586;SDS011;60621;49.576;11.024;2023-02-10T04:43:32;35.85;;;16.20;;
72586;SDS011;60621;49.576;11.024;2023-02-10T04:44:34;42.88;;;16.77;;
72586;SDS011;60621;49.576;11.024;2023-02-10T04:45:36;38.00;;;16.15;;
72586;SDS011;60621;49.576;11.024;2023-02-10T04:46:38;38.58;;;16.55;;
72586;SDS011;60621;49.576;11.024;2023-02-10T04:47:40;37.88;;;16.58;;
72586;SDS011;60621;49.576;11.024;2023-02-10T04:48:42;43.45;;;16.85;;
72586;SDS011;60621;49.576;11.024;2023-02-10T04:49:43;41.22;;;16.67;;
72586;SDS011;60621;49.576;11.024;2023-02-10T04:50:45;39.92;;;15.80;;
72586;SDS011;60621;49.576;11.024;2023-02-10T04:51:46;39.40;;;16.20;;
72586;SDS011;60621;49.576;11.024;2023-02-10T04:52:48;38.75;;;16.67;;
72586;SDS011;60621;49.576;11.024;2023-02-10T04:53:50;39.47;;;15.80;;
72586;SDS011;60621;49.576;11.024;2023-02-10T04:54:51;40.60;;;16.75;;
72586;SDS011;60621;49.576;11.024;2023-02-10T04:55:53;40.63;;;16.38;;
72586;SDS011;60621;49.576;11.024;2023-02-10T04:56:55;36.83;;;15.57;;
72586;SDS011;60621;49.576;11.024;2023-02-10T04:57:56;36.88;;;15.68;;
72586;SDS011;60621;49.576;11.024;2023-02-10T04:58:58;40.45;;;16.65;;
72586;SDS011;60621;49.576;11.024;2023-02-10T05:00:00;42.53;;;16.88;;
72586;SDS011;60621;49.576;11.024;2023-02-10T05:01:01;37.63;;;16.08;;
72586;SDS011;60621;49.576;11.024;2023-02-10T05:02:03;42.53;;;16.50;;
72586;SDS011;60621;49.576;11.024;2023-02-10T05:03:05;37.88;;;15.93;;
72586;SDS011;60621;49.576;11.024;2023-02-10T05:04:06;39.42;;;15.30;;
72586;SDS011;60621;49.576;11.024;2023-02-10T05:05:09;39.15;;;15.20;;
72586;SDS011;60621;49.576;11.024;2023-02-10T05:06:12;37.95;;;16.60;;
72586;SDS011;60621;49.576;11.024;2023-02-10T05:07:15;39.40;;;15.50;;
72586;SDS011;60621;49.576;11.024;2023-02-10T05:08:17;40.75;;;17.13;;
72586;SDS011;60621;49.576;11.024;2023-02-10T05:09:21;38.47;;;15.50;;
72586;SDS011;60621;49.576;11.024;2023-02-10T05:10:22;39.10;;;17.42;;
72586;SDS011;60621;49.576;11.024;2023-02-10T05:11:24;39.78;;;16.27;;
72586;SDS011;60621;49.576;11.024;2023-02-10T05:12:26;42.42;;;16.00;;
72586;SDS011;60621;49.576;11.024;2023-02-10T05:13:28;37.30;;;15.82;;
72586;SDS011;60621;49.576;11.024;2023-02-10T05:14:30;41.53;;;16.40;;
72586;SDS011;60621;49.576;11.024;2023-02-10T05:15:31;36.85;;;15.48;;
72586;SDS011;60621;49.576;11.024;2023-02-10T05:16:33;39.10;;;15.45;;
72586;SDS011;60621;49.576;11.024;2023-02-10T05:17:34;36.67;;;15.65;;
72586;SDS011;60621;49.576;11.024;2023-02-10T05:18:37;44.58;;;15.65;;
72586;SDS011;60621;49.576;11.024;2023-02-10T05:19:40;39.88;;;15.75;;
72586;SDS011;60621;49.576;11.024;2023-02-10T05:20:42;38.05;;;16.05;;
72586;SDS011;60621;49.576;11.024;2023-02-10T05:21:43;41.78;;;16.30;;
72586;SDS011;60621;49.576;11.024;2023-02-10T05:22:45;38.67;;;16.25;;
72586;SDS011;60621;49.576;11.024;2023-02-10T05:23:47;40.50;;;16.27;;
72586;SDS011;60621;49.576;11.024;2023-02-10T05:24:48;43.03;;;16.33;;
72586;SDS011;60621;49.576;11.024;2023-02-10T05:25:53;38.35;;;17.17;;
72586;SDS011;60621;49.576;11.024;2023-02-10T05:26:54;41.60;;;16.60;;
72586;SDS011;60621;49.576;11.024;2023-02-10T05:27:56;41.75;;;16.33;;
72586;SDS011;60621;49.576;11.024;2023-02-10T05:28:58;38.72;;;15.75;;
72586;SDS011;60621;49.576;11.024;2023-02-10T05:29:59;39.75;;;15.73;;
72586;SDS011;60621;49.576;11.024;2023-02-10T05:31:01;38.13;;;15.52;;
72586;SDS011;60621;49.576;11.024;2023-02-10T05:32:05;38.92;;;16.33;;
72586;SDS011;60621;49.576;11.024;2023-02-10T05:33:06;40.25;;;16.25;;
72586;SDS011;60621;49.576;11.024;2023-02-10T05:34:08;43.65;;;17.30;;
72586;SDS011;60621;49.576;11.024;2023-02-10T05:35:10;40.08;;;16.48;;
72586;SDS011;60621;49.576;11.024;2023-02-10T05:36:11;43.25;;;17.58;;
72586;SDS011;60621;49.576;11.024;2023-02-10T05:37:13;37.00;;;15.52;;
72586;SDS011;60621;49.576;11.024;2023-02-10T05:38:14;36.92;;;15.75;;
72586;SDS011;60621;49.576;11.024;2023-02-10T05:39:16;39.55;;;16.30;;
72586;SDS011;60621;49.576;11.024;2023-02-10T05:40:24;38.45;;;15.77;;
72586;SDS011;60621;49.576;11.024;2023-02-10T05:41:25;38.00;;;15.48;;
72586;SDS011;60621;49.576;11.024;2023-02-10T05:42:27;43.88;;;17.17;;
72586;SDS011;60621;49.576;11.024;2023-02-10T05:43:28;40.78;;;16.85;;
72586;SDS011;60621;49.576;11.024;2023-02-10T05:44:30;37.45;;;15.82;;
72586;SDS011;60621;49.576;11.024;2023-02-10T05:45:33;40.95;;;15.88;;
72586;SDS011;60621;49.576;11.024;2023-02-10T05:46:34;38.67;;;15.38;;
72586;SDS011;60621;49.576;11.024;2023-02-10T05:47:36;39.70;;;15.63;;
72586;SDS011;60621;49.576;11.024;2023-02-10T05:48:38;38.05;;;15.63;;
72586;SDS011;60621;49.576;11.024;2023-02-10T05:49:39;37.90;;;15.18;;
72586;SDS011;60621;49.576;11.024;2023-02-10T05:50:41;38.97;;;16.73;;
72586;SDS011;60621;49.576;11.024;2023-02-10T05:51:43;39.97;;;15.95;;
72586;SDS011;60621;49.576;11.024;2023-02-10T05:52:45;42.45;;;16.92;;
72586;SDS011;60621;49.576;11.024;2023-02-10T05:53:46;40.72;;;16.05;;
72586;SDS011;60621;49.576;11.024;2023-02-10T05:54:48;39.78;;;15.70;;
72586;SDS011;60621;49.576;11.024;2023-02-10T05:55:50;39.63;;;15.18;;
72586;SDS011;60621;49.576;11.024;2023-02-10T05:56:51;44.10;;;16.27;;
72586;SDS011;60621;49.576;11.024;2023-02-10T05:57:52;40.08;;;16.08;;
72586;SDS011;60621;49.576;11.024;2023-02-10T05:58:54;39.75;;;15.65;;
72586;SDS011;60621;49.576;11.024;2023-02-10T05:59:56;41.38;;;16.20;;
72586;SDS011;60621;49.576;11.024;2023-02-10T06:00:58;39.78;;;15.80;;
72586;SDS011;60621;49.576;11.024;2023-02-10T06:02:00;40.90;;;16.58;;
72586;SDS011;60621;49.576;11.024;2023-02-10T06:03:02;38.35;;;15.32;;
72586;SDS011;60621;49.576;11.024;2023-02-10T06:04:03;44.22;;;16.55;;
72586;SDS011;60621;49.576;11.024;2023-02-10T06:05:05;39.97;;;15.70;;
72586;SDS011;60621;49.576;11.024;2023-02-10T06:06:07;38.63;;;16.55;;
72586;SDS011;60621;49.576;11.024;2023-02-10T06:07:08;40.45;;;16.42;;
72586;SDS011;60621;49.576;11.024;2023-02-10T06:08:10;41.10;;;16.58;;
72586;SDS011;60621;49.576;11.024;2023-02-10T06:09:12;42.03;;;16.92;;
72586;SDS011;60621;49.576;11.024;2023-02-10T06:10:14;40.90;;;17.10;;
72586;SDS011;60621;49.576;11.024;2023-02-10T06:11:15;40.70;;;15.90;;
72586;SDS011;60621;49.576;11.024;2023-02-10T06:12:17;43.05;;;16.70;;
72586;SDS011;60621;49.576;11.024;2023-02-10T06:13:19;43.72;;;18.00;;
72586;SDS011;60621;49.576;11.024;2023-02-10T06:14:21;44.22;;;17.33;;
72586;SDS011;60621;49.576;11.024;2023-02-10T06:15:23;43.30;;;17.25;;
72586;SDS011;60621;49.576;11.024;2023-02-10T06:16:24;42.00;;;16.77;;
72586;SDS011;60621;49.576;11.024;2023-02-10T06:17:27;42.40;;;17.08;;
72586;SDS011;60621;49.576;11.024;2023-02-10T06:18:30;47.83;;;17.30;;
72586;SDS011;60621;49.576;11.024;2023-02-10T06:19:32;40.38;;;17.73;;
72586;SDS011;60621;49.576;11.024;2023-02-10T06:20:34;43.33;;;16.40;;
72586;SDS011;60621;49.576;11.024;2023-02-10T06:21:35;45.88;;;17.80;;
72586;SDS011;60621;49.576;11.024;2023-02-10T06:22:37;43.20;;;16.67;;
72586;SDS011;60621;49.576;11.024;2023-02-10T06:23:39;42.50;;;16.88;;
72586;SDS011;60621;49.576;11.024;2023-02-10T06:24:40;38.90;;;16.98;;
72586;SDS011;60621;49.576;11.024;2023-02-10T06:25:42;44.38;;;16.42;;
72586;SDS011;60621;49.576;11.024;2023-02-10T06:26:44;36.92;;;16.08;;
72586;SDS011;60621;49.576;11.024;2023-02-10T06:27:45;40.97;;;16.77;;